Terminal Aerodrome Forecast
Issued by NWS Albuquerque, NM

Home | Current Version | Previous Version | Text Only | Print | Product List | Glossary On
Versions: 1 2 3 4 5 6 7 8 9 10 11 12 13
000
FTUS45 KABQ 060537
TAFABQ
TAF
KABQ 060537Z 0606/0706 24007KT P6SM VCSH BKN060 BKN100
     FM060900 15006KT P6SM BKN100
     FM061500 21006KT P6SM SCT060 SCT150
     FM062100 32006KT P6SM VCTS BKN070CB BKN150
     FM062300 09012G20KT P6SM VCTS BKN070CB BKN120
     FM070300 09020G32KT P6SM VCTS BKN050CB BKN090=

USA.gov is the U.S. government's official web portal to all federal, state and local government web resources and services.